sensor_id;sensor_type;location;lat;lon;timestamp;pressure;altitude;pressure_sealevel;temperature;humidity
20394;BME280;10356;50.544;9.642;2023-02-20T00:00:57;99221.47;;;7.03;86.76
20394;BME280;10356;50.544;9.642;2023-02-20T00:03:24;99210.44;;;7.00;86.34
20394;BME280;10356;50.544;9.642;2023-02-20T00:05:50;99204.56;;;6.96;87.11
20394;BME280;10356;50.544;9.642;2023-02-20T00:08:17;99210.31;;;6.84;86.83
20394;BME280;10356;50.544;9.642;2023-02-20T00:10:44;99211.59;;;6.75;87.94
20394;BME280;10356;50.544;9.642;2023-02-20T00:13:11;99212.72;;;6.70;88.59
20394;BME280;10356;50.544;9.642;2023-02-20T00:15:37;99216.16;;;6.70;87.72
20394;BME280;10356;50.544;9.642;2023-02-20T00:18:04;99206.22;;;6.61;86.87
20394;BME280;10356;50.544;9.642;2023-02-20T00:20:31;99215.81;;;6.59;85.42
20394;BME280;10356;50.544;9.642;2023-02-20T00:22:58;99229.16;;;6.69;83.96
20394;BME280;10356;50.544;9.642;2023-02-20T00:25:24;99223.66;;;6.58;83.63
20394;BME280;10356;50.544;9.642;2023-02-20T00:27:52;99223.78;;;6.55;83.13
20394;BME280;10356;50.544;9.642;2023-02-20T00:30:20;99219.16;;;6.61;81.96
20394;BME280;10356;50.544;9.642;2023-02-20T00:32:48;99220.28;;;6.56;82.78
20394;BME280;10356;50.544;9.642;2023-02-20T00:35:16;99218.59;;;6.55;82.96
20394;BME280;10356;50.544;9.642;2023-02-20T00:37:43;99206.38;;;6.58;83.08
20394;BME280;10356;50.544;9.642;2023-02-20T00:40:10;99214.63;;;6.48;84.46
20394;BME280;10356;50.544;9.642;2023-02-20T00:42:37;99213.97;;;6.43;85.51
20394;BME280;10356;50.544;9.642;2023-02-20T00:45:06;99212.34;;;6.40;85.52
20394;BME280;10356;50.544;9.642;2023-02-20T00:47:32;99206.56;;;6.35;86.31
20394;BME280;10356;50.544;9.642;2023-02-20T00:49:59;99199.84;;;6.31;86.36
20394;BME280;10356;50.544;9.642;2023-02-20T00:52:25;99188.53;;;6.34;86.87
20394;BME280;10356;50.544;9.642;2023-02-20T00:54:52;99193.41;;;6.21;87.92
20394;BME280;10356;50.544;9.642;2023-02-20T00:57:19;99204.59;;;6.22;88.57
20394;BME280;10356;50.544;9.642;2023-02-20T00:59:45;99202.22;;;6.17;88.76
20394;BME280;10356;50.544;9.642;2023-02-20T01:02:13;99192.72;;;6.18;89.00
20394;BME280;10356;50.544;9.642;2023-02-20T01:04:40;99198.28;;;6.09;89.62
20394;BME280;10356;50.544;9.642;2023-02-20T01:07:06;99199.97;;;6.10;90.14
20394;BME280;10356;50.544;9.642;2023-02-20T01:09:33;99194.06;;;6.06;90.32
20394;BME280;10356;50.544;9.642;2023-02-20T01:11:59;99203.72;;;6.03;91.02
20394;BME280;10356;50.544;9.642;2023-02-20T01:14:26;99204.84;;;5.97;91.54
20394;BME280;10356;50.544;9.642;2023-02-20T01:16:52;99207.50;;;5.96;91.86
20394;BME280;10356;50.544;9.642;2023-02-20T01:19:21;99209.03;;;6.00;91.53
20394;BME280;10356;50.544;9.642;2023-02-20T01:21:49;99209.31;;;5.93;91.95
20394;BME280;10356;50.544;9.642;2023-02-20T01:24:16;99193.84;;;5.92;92.81
20394;BME280;10356;50.544;9.642;2023-02-20T01:26:44;99205.94;;;5.91;92.78
20394;BME280;10356;50.544;9.642;2023-02-20T01:29:11;99187.19;;;5.86;93.26
20394;BME280;10356;50.544;9.642;2023-02-20T01:31:37;99189.13;;;5.81;94.22
20394;BME280;10356;50.544;9.642;2023-02-20T01:34:04;99176.31;;;5.78;94.79
20394;BME280;10356;50.544;9.642;2023-02-20T01:36:32;99173.88;;;5.75;95.59
20394;BME280;10356;50.544;9.642;2023-02-20T01:38:59;99175.69;;;5.73;95.79
20394;BME280;10356;50.544;9.642;2023-02-20T01:41:25;99180.06;;;5.71;95.65
20394;BME280;10356;50.544;9.642;2023-02-20T01:43:52;99180.06;;;5.71;96.21
20394;BME280;10356;50.544;9.642;2023-02-20T01:46:42;99170.94;;;5.83;96.38
20394;BME280;10356;50.544;9.642;2023-02-20T01:49:13;99172.06;;;5.77;96.95
20394;BME280;10356;50.544;9.642;2023-02-20T01:51:43;99164.91;;;5.82;97.34
20394;BME280;10356;50.544;9.642;2023-02-20T01:54:15;99169.47;;;5.98;96.58
20394;BME280;10356;50.544;9.642;2023-02-20T01:56:44;99168.03;;;5.90;96.69
20394;BME280;10356;50.544;9.642;2023-02-20T01:59:12;99167.94;;;5.93;96.97
20394;BME280;10356;50.544;9.642;2023-02-20T02:01:40;99167.50;;;6.03;96.96
20394;BME280;10356;50.544;9.642;2023-02-20T02:04:08;99156.47;;;5.99;96.65
20394;BME280;10356;50.544;9.642;2023-02-20T02:06:39;99173.22;;;5.90;97.36
20394;BME280;10356;50.544;9.642;2023-02-20T02:09:12;99161.31;;;5.86;97.56
20394;BME280;10356;50.544;9.642;2023-02-20T02:11:41;99157.84;;;5.87;97.62
20394;BME280;10356;50.544;9.642;2023-02-20T02:14:08;99159.91;;;5.79;98.05
20394;BME280;10356;50.544;9.642;2023-02-20T02:16:39;99155.63;;;5.78;98.50
20394;BME280;10356;50.544;9.642;2023-02-20T02:19:21;99168.69;;;5.75;98.89
20394;BME280;10356;50.544;9.642;2023-02-20T02:30:58;99155.47;;;5.43;100.00
20394;BME280;10356;50.544;9.642;2023-02-20T02:33:58;99161.41;;;5.45;100.00
20394;BME280;10356;50.544;9.642;2023-02-20T02:36:37;99160.19;;;5.33;100.00
20394;BME280;10356;50.544;9.642;2023-02-20T02:39:12;99155.28;;;5.27;100.00
20394;BME280;10356;50.544;9.642;2023-02-20T02:41:45;99163.13;;;5.24;100.00
20394;BME280;10356;50.544;9.642;2023-02-20T02:44:17;99166.50;;;5.46;100.00
20394;BME280;10356;50.544;9.642;2023-02-20T02:46:49;99155.84;;;5.34;100.00
20394;BME280;10356;50.544;9.642;2023-02-20T02:49:25;99165.22;;;5.36;100.00
20394;BME280;10356;50.544;9.642;2023-02-20T02:51:56;99159.19;;;5.36;100.00
20394;BME280;10356;50.544;9.642;2023-02-20T02:54:26;99157.13;;;5.44;100.00
20394;BME280;10356;50.544;9.642;2023-02-20T02:57:14;99157.47;;;5.36;100.00
20394;BME280;10356;50.544;9.642;2023-02-20T02:59:40;99163.91;;;5.26;100.00
20394;BME280;10356;50.544;9.642;2023-02-20T03:02:12;99162.50;;;5.19;100.00
20394;BME280;10356;50.544;9.642;2023-02-20T03:04:40;99161.84;;;5.14;100.00
20394;BME280;10356;50.544;9.642;2023-02-20T03:07:13;99144.38;;;4.99;100.00
20394;BME280;10356;50.544;9.642;2023-02-20T03:09:43;99147.97;;;4.95;100.00
20394;BME280;10356;50.544;9.642;2023-02-20T03:12:12;99147.16;;;4.94;100.00
20394;BME280;10356;50.544;9.642;2023-02-20T03:14:42;99154.91;;;4.94;100.00
20394;BME280;10356;50.544;9.642;2023-02-20T03:17:31;99146.56;;;4.88;100.00
20394;BME280;10356;50.544;9.642;2023-02-20T03:20:00;99146.72;;;4.83;100.00
20394;BME280;10356;50.544;9.642;2023-02-20T03:22:32;99134.44;;;4.90;100.00
20394;BME280;10356;50.544;9.642;2023-02-20T03:25:03;99131.41;;;5.00;100.00
20394;BME280;10356;50.544;9.642;2023-02-20T03:27:35;99145.47;;;4.93;100.00
20394;BME280;10356;50.544;9.642;2023-02-20T03:30:08;99150.84;;;5.09;99.30
20394;BME280;10356;50.544;9.642;2023-02-20T03:32:35;99147.63;;;5.04;99.22
20394;BME280;10356;50.544;9.642;2023-02-20T03:35:23;99154.75;;;4.97;99.79
20394;BME280;10356;50.544;9.642;2023-02-20T03:38:09;99143.78;;;4.92;100.00
20394;BME280;10356;50.544;9.642;2023-02-20T03:40:56;99150.53;;;4.96;100.00
20394;BME280;10356;50.544;9.642;2023-02-20T03:43:43;99145.72;;;4.87;100.00
20394;BME280;10356;50.544;9.642;2023-02-20T03:46:13;99139.34;;;4.96;99.81
20394;BME280;10356;50.544;9.642;2023-02-20T03:48:45;99137.53;;;4.98;99.84
20394;BME280;10356;50.544;9.642;2023-02-20T03:51:15;99142.31;;;5.07;99.44
20394;BME280;10356;50.544;9.642;2023-02-20T03:54:00;99131.63;;;5.16;98.77
20394;BME280;10356;50.544;9.642;2023-02-20T03:56:30;99134.59;;;5.27;97.88
20394;BME280;10356;50.544;9.642;2023-02-20T03:59:00;99135.91;;;5.37;97.10
20394;BME280;10356;50.544;9.642;2023-02-20T04:01:27;99144.41;;;5.39;96.92
20394;BME280;10356;50.544;9.642;2023-02-20T04:03:56;99139.44;;;5.55;95.88
20394;BME280;10356;50.544;9.642;2023-02-20T04:06:27;99130.06;;;5.52;96.15
20394;BME280;10356;50.544;9.642;2023-02-20T04:08:58;99121.41;;;5.53;96.33
20394;BME280;10356;50.544;9.642;2023-02-20T04:11:30;99126.06;;;5.45;96.99
20394;BME280;10356;50.544;9.642;2023-02-20T04:13:59;99124.88;;;5.52;97.20
20394;BME280;10356;50.544;9.642;2023-02-20T04:16:27;99129.44;;;5.47;97.82
20394;BME280;10356;50.544;9.642;2023-02-20T04:18:54;99132.19;;;5.43;98.35
20394;BME280;10356;50.544;9.642;2023-02-20T04:21:26;99122.06;;;5.38;98.65
20394;BME280;10356;50.544;9.642;2023-02-20T04:24:01;99120.50;;;5.34;99.09
20394;BME280;10356;50.544;9.642;2023-02-20T04:26:29;99123.34;;;5.28;99.63
20394;BME280;10356;50.544;9.642;2023-02-20T04:28:56;99114.75;;;5.28;100.00
20394;BME280;10356;50.544;9.642;2023-02-20T04:31:23;99123.50;;;5.25;100.00
20394;BME280;10356;50.544;9.642;2023-02-20T04:33:50;99124.38;;;5.24;100.00
20394;BME280;10356;50.544;9.642;2023-02-20T04:36:16;99120.66;;;5.31;100.00
20394;BME280;10356;50.544;9.642;2023-02-20T04:38:43;99116.53;;;5.27;100.00
20394;BME280;10356;50.544;9.642;2023-02-20T04:41:09;99116.31;;;5.32;100.00
20394;BME280;10356;50.544;9.642;2023-02-20T04:43:37;99128.06;;;5.39;100.00
20394;BME280;10356;50.544;9.642;2023-02-20T04:46:04;99124.00;;;5.33;100.00
20394;BME280;10356;50.544;9.642;2023-02-20T04:48:30;99125.94;;;5.28;100.00
20394;BME280;10356;50.544;9.642;2023-02-20T04:50:57;99124.38;;;5.24;100.00
20394;BME280;10356;50.544;9.642;2023-02-20T04:53:23;99132.72;;;5.31;100.00
20394;BME280;10356;50.544;9.642;2023-02-20T04:55:50;99134.91;;;5.40;100.00
20394;BME280;10356;50.544;9.642;2023-02-20T04:58:16;99132.03;;;5.47;100.00
20394;BME280;10356;50.544;9.642;2023-02-20T05:00:44;99133.09;;;5.42;100.00
20394;BME280;10356;50.544;9.642;2023-02-20T05:03:11;99131.53;;;5.38;100.00
20394;BME280;10356;50.544;9.642;2023-02-20T05:05:37;99129.38;;;5.29;100.00
20394;BME280;10356;50.544;9.642;2023-02-20T05:08:06;99136.09;;;5.33;100.00
20394;BME280;10356;50.544;9.642;2023-02-20T05:10:34;99132.03;;;5.27;100.00
20394;BME280;10356;50.544;9.642;2023-02-20T05:13:00;99129.22;;;5.11;100.00
20394;BME280;10356;50.544;9.642;2023-02-20T05:15:28;99135.91;;;5.17;100.00
20394;BME280;10356;50.544;9.642;2023-02-20T05:17:56;99125.16;;;5.06;100.00
20394;BME280;10356;50.544;9.642;2023-02-20T05:20:23;99127.31;;;4.95;100.00
20394;BME280;10356;50.544;9.642;2023-02-20T05:23:10;99127.69;;;4.86;100.00
20394;BME280;10356;50.544;9.642;2023-02-20T05:25:35;99123.91;;;4.73;100.00
20394;BME280;10356;50.544;9.642;2023-02-20T05:28:02;99125.53;;;4.75;100.00
20394;BME280;10356;50.544;9.642;2023-02-20T05:30:28;99123.22;;;4.69;100.00
20394;BME280;10356;50.544;9.642;2023-02-20T05:32:56;99117.16;;;4.70;100.00
20394;BME280;10356;50.544;9.642;2023-02-20T05:35:23;99117.81;;;4.75;100.00
20394;BME280;10356;50.544;9.642;2023-02-20T05:37:49;99115.53;;;4.68;100.00
20394;BME280;10356;50.544;9.642;2023-02-20T05:40:16;99119.91;;;4.66;100.00
20394;BME280;10356;50.544;9.642;2023-02-20T05:42:42;99108.22;;;4.57;100.00
20394;BME280;10356;50.544;9.642;2023-02-20T05:45:08;99109.38;;;4.50;100.00
20394;BME280;10356;50.544;9.642;2023-02-20T05:47:36;99105.28;;;4.45;100.00
20394;BME280;10356;50.544;9.642;2023-02-20T05:50:04;99099.41;;;4.41;100.00
20394;BME280;10356;50.544;9.642;2023-02-20T05:52:31;99078.16;;;4.35;100.00
20394;BME280;10356;50.544;9.642;2023-02-20T05:54:57;99080.69;;;4.36;100.00
20394;BME280;10356;50.544;9.642;2023-02-20T05:57:24;99106.19;;;4.44;100.00
20394;BME280;10356;50.544;9.642;2023-02-20T05:59:50;99106.59;;;4.55;100.00
20394;BME280;10356;50.544;9.642;2023-02-20T06:02:17;99087.22;;;4.45;100.00
20394;BME280;10356;50.544;9.642;2023-02-20T06:04:43;99097.00;;;4.37;100.00
20394;BME280;10356;50.544;9.642;2023-02-20T06:07:11;99081.22;;;4.44;100.00
20394;BME280;10356;50.544;9.642;2023-02-20T06:09:41;99068.69;;;4.35;100.00
20394;BME280;10356;50.544;9.642;2023-02-20T06:12:07;99075.72;;;4.32;100.00
20394;BME280;10356;50.544;9.642;2023-02-20T06:14:34;99078.63;;;4.22;100.00
20394;BME280;10356;50.544;9.642;2023-02-20T06:17:00;99076.59;;;4.31;100.00
20394;BME280;10356;50.544;9.642;2023-02-20T06:19:27;99078.75;;;4.19;100.00
20394;BME280;10356;50.544;9.642;2023-02-20T06:21:54;99071.81;;;4.21;100.00
20394;BME280;10356;50.544;9.642;2023-02-20T06:24:24;99072.91;;;4.16;100.00
20394;BME280;10356;50.544;9.642;2023-02-20T06:26:51;99080.66;;;4.14;100.00
20394;BME280;10356;50.544;9.642;2023-02-20T06:29:17;99083.38;;;4.11;100.00
20394;BME280;10356;50.544;9.642;2023-02-20T06:31:44;99079.06;;;4.12;100.00
20394;BME280;10356;50.544;9.642;2023-02-20T06:34:11;99070.47;;;4.11;100.00
20394;BME280;10356;50.544;9.642;2023-02-20T06:36:39;99081.56;;;4.13;100.00
20394;BME280;10356;50.544;9.642;2023-02-20T06:39:08;99080.91;;;4.08;100.00
20394;BME280;10356;50.544;9.642;2023-02-20T06:41:36;99081.88;;;4.06;100.00
20394;BME280;10356;50.544;9.642;2023-02-20T06:44:02;99093.84;;;4.07;100.00
20394;BME280;10356;50.544;9.642;2023-02-20T06:46:29;99098.06;;;4.09;100.00
20394;BME280;10356;50.544;9.642;2023-02-20T06:48:57;99094.56;;;4.10;100.00
20394;BME280;10356;50.544;9.642;2023-02-20T06:51:28;99075.50;;;4.14;100.00
20394;BME280;10356;50.544;9.642;2023-02-20T06:53:55;99080.31;;;4.23;100.00
20394;BME280;10356;50.544;9.642;2023-02-20T06:56:23;99079.25;;;4.29;100.00
20394;BME280;10356;50.544;9.642;2023-02-20T06:58:52;99075.88;;;4.49;100.00
20394;BME280;10356;50.544;9.642;2023-02-20T07:01:21;99079.19;;;4.52;100.00
20394;BME280;10356;50.544;9.642;2023-02-20T07:03:48;99071.78;;;4.65;100.00
20394;BME280;10356;50.544;9.642;2023-02-20T07:06:15;99075.88;;;4.70;100.00
20394;BME280;10356;50.544;9.642;2023-02-20T07:08:42;99084.94;;;4.79;100.00
20394;BME280;10356;50.544;9.642;2023-02-20T07:11:09;99078.66;;;4.86;100.00
20394;BME280;10356;50.544;9.642;2023-02-20T07:13:36;99077.63;;;4.90;100.00
20394;BME280;10356;50.544;9.642;2023-02-20T07:16:04;99085.75;;;5.01;100.00
20394;BME280;10356;50.544;9.642;2023-02-20T07:18:31;99080.72;;;4.98;100.00
20394;BME280;10356;50.544;9.642;2023-02-20T07:20:57;99087.69;;;4.96;100.00
20394;BME280;10356;50.544;9.642;2023-02-20T07:23:23;99082.13;;;5.05;100.00
20394;BME280;10356;50.544;9.642;2023-02-20T07:25:50;99087.97;;;5.10;100.00
20394;BME280;10356;50.544;9.642;2023-02-20T07:28:17;99084.53;;;5.09;100.00
20394;BME280;10356;50.544;9.642;2023-02-20T07:30:44;99097.25;;;5.14;100.00
20394;BME280;10356;50.544;9.642;2023-02-20T07:33:15;99095.06;;;5.25;100.00
20394;BME280;10356;50.544;9.642;2023-02-20T07:35:42;99102.41;;;5.34;100.00
20394;BME280;10356;50.544;9.642;2023-02-20T07:38:08;99092.59;;;5.42;100.00
20394;BME280;10356;50.544;9.642;2023-02-20T07:40:35;99090.25;;;5.56;100.00
20394;BME280;10356;50.544;9.642;2023-02-20T07:43:01;99092.09;;;5.73;100.00
20394;BME280;10356;50.544;9.642;2023-02-20T07:45:28;99086.50;;;5.83;100.00
20394;BME280;10356;50.544;9.642;2023-02-20T07:47:54;99083.06;;;6.02;100.00
20394;BME280;10356;50.544;9.642;2023-02-20T07:50:22;99071.31;;;6.13;100.00
20394;BME280;10356;50.544;9.642;2023-02-20T07:52:49;99066.13;;;6.32;100.00
20394;BME280;10356;50.544;9.642;2023-02-20T07:55:16;99058.38;;;6.49;100.00
20394;BME280;10356;50.544;9.642;2023-02-20T07:57:45;99056.13;;;6.60;98.96
20394;BME280;10356;50.544;9.642;2023-02-20T08:00:14;99053.47;;;6.78;98.78
20394;BME280;10356;50.544;9.642;2023-02-20T08:02:40;99049.88;;;6.98;97.93
20394;BME280;10356;50.544;9.642;2023-02-20T08:05:07;99054.28;;;7.13;95.87
20394;BME280;10356;50.544;9.642;2023-02-20T08:07:36;99056.94;;;7.12;95.39
20394;BME280;10356;50.544;9.642;2023-02-20T08:10:04;99062.06;;;7.13;95.82
20394;BME280;10356;50.544;9.642;2023-02-20T08:12:31;99056.88;;;7.13;95.36
20394;BME280;10356;50.544;9.642;2023-02-20T08:14:57;99040.09;;;7.03;95.73
20394;BME280;10356;50.544;9.642;2023-02-20T08:17:24;99050.94;;;6.94;96.58
20394;BME280;10356;50.544;9.642;2023-02-20T08:19:50;99044.25;;;6.90;96.18
20394;BME280;10356;50.544;9.642;2023-02-20T08:22:17;99036.63;;;6.87;96.48
20394;BME280;10356;50.544;9.642;2023-02-20T08:24:45;99037.69;;;6.83;97.10
20394;BME280;10356;50.544;9.642;2023-02-20T08:27:11;99039.28;;;6.86;96.22
20394;BME280;10356;50.544;9.642;2023-02-20T08:29:38;99040.13;;;6.86;96.46
20394;BME280;10356;50.544;9.642;2023-02-20T08:32:04;99045.91;;;6.91;96.05
20394;BME280;10356;50.544;9.642;2023-02-20T08:34:31;99042.25;;;6.95;95.51
20394;BME280;10356;50.544;9.642;2023-02-20T08:36:57;99039.16;;;6.89;95.12
20394;BME280;10356;50.544;9.642;2023-02-20T08:39:23;99044.06;;;6.93;95.80
20394;BME280;10356;50.544;9.642;2023-02-20T08:41:52;99045.78;;;6.94;95.60
20394;BME280;10356;50.544;9.642;2023-02-20T08:44:18;99048.94;;;6.99;96.09
20394;BME280;10356;50.544;9.642;2023-02-20T08:46:46;99051.53;;;6.99;95.69
20394;BME280;10356;50.544;9.642;2023-02-20T08:49:12;99055.38;;;6.92;95.76
20394;BME280;10356;50.544;9.642;2023-02-20T08:51:41;99053.81;;;7.05;95.88
20394;BME280;10356;50.544;9.642;2023-02-20T08:54:07;99048.50;;;7.08;95.46
20394;BME280;10356;50.544;9.642;2023-02-20T08:56:34;99054.59;;;7.07;94.40
20394;BME280;10356;50.544;9.642;2023-02-20T08:59:02;99051.22;;;7.05;95.13
20394;BME280;10356;50.544;9.642;2023-02-20T09:01:28;99048.59;;;7.07;94.52
20394;BME280;10356;50.544;9.642;2023-02-20T09:03:55;99053.91;;;7.04;95.01
20394;BME280;10356;50.544;9.642;2023-02-20T09:06:21;99055.81;;;7.00;95.20
20394;BME280;10356;50.544;9.642;2023-02-20T09:08:50;99052.59;;;6.95;95.07
20394;BME280;10356;50.544;9.642;2023-02-20T09:11:16;99048.13;;;6.99;94.90
20394;BME280;10356;50.544;9.642;2023-02-20T09:13:44;99036.75;;;7.01;94.85
20394;BME280;10356;50.544;9.642;2023-02-20T09:16:12;99042.03;;;7.00;94.31
20394;BME280;10356;50.544;9.642;2023-02-20T09:18:39;99030.75;;;7.01;94.01
20394;BME280;10356;50.544;9.642;2023-02-20T09:21:07;99031.81;;;7.14;93.60
20394;BME280;10356;50.544;9.642;2023-02-20T09:23:34;99027.34;;;7.33;93.54
20394;BME280;10356;50.544;9.642;2023-02-20T09:26:00;99035.41;;;7.44;92.55
20394;BME280;10356;50.544;9.642;2023-02-20T09:28:27;99031.16;;;7.58;92.54
20394;BME280;10356;50.544;9.642;2023-02-20T09:30:53;99030.53;;;7.71;91.35
20394;BME280;10356;50.544;9.642;2023-02-20T09:33:23;99020.41;;;7.82;90.75
20394;BME280;10356;50.544;9.642;2023-02-20T09:35:49;99024.00;;;7.95;89.55
20394;BME280;10356;50.544;9.642;2023-02-20T09:38:16;99024.66;;;7.98;89.55
20394;BME280;10356;50.544;9.642;2023-02-20T09:40:45;99014.31;;;8.14;89.53
20394;BME280;10356;50.544;9.642;2023-02-20T09:43:22;99020.75;;;8.38;87.88
20394;BME280;10356;50.544;9.642;2023-02-20T09:45:56;99012.56;;;8.30;87.53
20394;BME280;10356;50.544;9.642;2023-02-20T09:48:38;99020.31;;;8.45;87.09
20394;BME280;10356;50.544;9.642;2023-02-20T09:51:12;99029.72;;;8.48;85.76
20394;BME280;10356;50.544;9.642;2023-02-20T09:53:45;99024.91;;;8.56;86.27
20394;BME280;10356;50.544;9.642;2023-02-20T09:56:17;99033.09;;;8.64;86.11
20394;BME280;10356;50.544;9.642;2023-02-20T09:58:50;99035.13;;;8.59;85.57
20394;BME280;10356;50.544;9.642;2023-02-20T10:01:21;99030.56;;;8.63;85.08
20394;BME280;10356;50.544;9.642;2023-02-20T10:03:54;99024.97;;;8.55;86.00
20394;BME280;10356;50.544;9.642;2023-02-20T10:06:24;99031.03;;;8.55;86.39
20394;BME280;10356;50.544;9.642;2023-02-20T10:08:51;99023.19;;;8.71;86.59
20394;BME280;10356;50.544;9.642;2023-02-20T10:11:26;99022.72;;;8.64;85.55
20394;BME280;10356;50.544;9.642;2023-02-20T10:14:00;99021.16;;;8.46;85.62
20394;BME280;10356;50.544;9.642;2023-02-20T10:16:35;99024.56;;;8.62;86.93
20394;BME280;10356;50.544;9.642;2023-02-20T10:19:16;99014.25;;;8.61;86.65
20394;BME280;10356;50.544;9.642;2023-02-20T10:21:52;99016.69;;;8.64;86.95
20394;BME280;10356;50.544;9.642;2023-02-20T10:24:45;99013.88;;;8.67;86.63
20394;BME280;10356;50.544;9.642;2023-02-20T10:27:26;99012.31;;;8.64;86.78
20394;BME280;10356;50.544;9.642;2023-02-20T10:29:56;99006.44;;;8.90;86.60
20394;BME280;10356;50.544;9.642;2023-02-20T10:32:28;99001.28;;;9.04;84.61
20394;BME280;10356;50.544;9.642;2023-02-20T10:35:03;99009.25;;;9.15;84.73
20394;BME280;10356;50.544;9.642;2023-02-20T10:37:34;99009.25;;;9.15;83.91
20394;BME280;10356;50.544;9.642;2023-02-20T10:40:11;99007.78;;;9.11;84.17
20394;BME280;10356;50.544;9.642;2023-02-20T10:42:41;99012.44;;;9.06;84.87
20394;BME280;10356;50.544;9.642;2023-02-20T10:45:15;99002.78;;;9.08;84.51
20394;BME280;10356;50.544;9.642;2023-02-20T10:47:45;98991.25;;;9.12;84.75
20394;BME280;10356;50.544;9.642;2023-02-20T10:50:19;98991.63;;;9.20;84.70
20394;BME280;10356;50.544;9.642;2023-02-20T10:52:51;98979.00;;;9.28;84.10
20394;BME280;10356;50.544;9.642;2023-02-20T10:55:25;98974.72;;;9.42;83.57
20394;BME280;10356;50.544;9.642;2023-02-20T10:57:56;98975.75;;;9.39;84.31
20394;BME280;10356;50.544;9.642;2023-02-20T11:00:29;98978.44;;;9.23;85.38
20394;BME280;10356;50.544;9.642;2023-02-20T11:03:03;98972.84;;;9.44;83.78
20394;BME280;10356;50.544;9.642;2023-02-20T11:05:37;98971.94;;;9.59;82.85
20394;BME280;10356;50.544;9.642;2023-02-20T11:08:06;98958.16;;;9.71;81.75
20394;BME280;10356;50.544;9.642;2023-02-20T11:10:32;98950.91;;;9.62;83.04
20394;BME280;10356;50.544;9.642;2023-02-20T11:13:00;98950.22;;;9.86;81.05
20394;BME280;10356;50.544;9.642;2023-02-20T11:15:29;98943.69;;;9.93;81.50
20394;BME280;10356;50.544;9.642;2023-02-20T11:17:58;98943.84;;;10.31;78.92
20394;BME280;10356;50.544;9.642;2023-02-20T11:20:41;98929.03;;;10.58;78.56
20394;BME280;10356;50.544;9.642;2023-02-20T11:23:32;98923.19;;;10.67;76.46
20394;BME280;10356;50.544;9.642;2023-02-20T11:26:12;98923.41;;;10.64;75.35
20394;BME280;10356;50.544;9.642;2023-02-20T11:28:39;98924.81;;;10.43;75.82
20394;BME280;10356;50.544;9.642;2023-02-20T11:31:06;98913.75;;;10.27;77.31
20394;BME280;10356;50.544;9.642;2023-02-20T11:33:35;98910.25;;;10.53;77.88
20394;BME280;10356;50.544;9.642;2023-02-20T11:36:13;98897.16;;;10.92;75.94
20394;BME280;10356;50.544;9.642;2023-02-20T11:38:41;98889.84;;;11.46;72.69
20394;BME280;10356;50.544;9.642;2023-02-20T11:41:19;98885.16;;;11.88;70.78
20394;BME280;10356;50.544;9.642;2023-02-20T11:44:04;98869.38;;;11.89;67.03
20394;BME280;10356;50.544;9.642;2023-02-20T11:46:31;98875.53;;;11.88;68.57
20394;BME280;10356;50.544;9.642;2023-02-20T11:49:00;98872.78;;;12.13;67.24
20394;BME280;10356;50.544;9.642;2023-02-20T11:51:36;98875.03;;;12.41;64.92
20394;BME280;10356;50.544;9.642;2023-02-20T11:54:08;98865.78;;;12.59;64.96
20394;BME280;10356;50.544;9.642;2023-02-20T11:56:35;98871.28;;;12.79;63.55
20394;BME280;10356;50.544;9.642;2023-02-20T11:59:35;98857.38;;;12.89;61.70
20394;BME280;10356;50.544;9.642;2023-02-20T12:02:26;98853.56;;;12.93;62.28
20394;BME280;10356;50.544;9.642;2023-02-20T12:05:06;98860.72;;;12.80;63.20
20394;BME280;10356;50.544;9.642;2023-02-20T12:07:37;98850.66;;;13.09;61.94
20394;BME280;10356;50.544;9.642;2023-02-20T12:10:15;98843.72;;;13.30;61.95
20394;BME280;10356;50.544;9.642;2023-02-20T12:12:45;98842.03;;;13.51;60.58
20394;BME280;10356;50.544;9.642;2023-02-20T12:15:12;98845.13;;;13.45;60.79
20394;BME280;10356;50.544;9.642;2023-02-20T12:17:48;98835.81;;;13.52;60.25
20394;BME280;10356;50.544;9.642;2023-02-20T12:20:21;98835.59;;;13.55;60.87
20394;BME280;10356;50.544;9.642;2023-02-20T12:22:59;98823.22;;;13.57;59.99
20394;BME280;10356;50.544;9.642;2023-02-20T12:25:36;98833.56;;;13.47;58.61
20394;BME280;10356;50.544;9.642;2023-02-20T12:28:13;98819.19;;;13.42;59.96
20394;BME280;10356;50.544;9.642;2023-02-20T12:30:58;98814.81;;;13.74;59.54
20394;BME280;10356;50.544;9.642;2023-02-20T12:33:48;98799.38;;;13.71;59.19
20394;BME280;10356;50.544;9.642;2023-02-20T12:36:24;98805.75;;;13.78;58.88
20394;BME280;10356;50.544;9.642;2023-02-20T12:38:57;98804.34;;;13.74;60.49
20394;BME280;10356;50.544;9.642;2023-02-20T12:41:30;98805.63;;;13.80;58.91
20394;BME280;10356;50.544;9.642;2023-02-20T12:44:12;98794.44;;;13.46;59.03
20394;BME280;10356;50.544;9.642;2023-02-20T12:46:47;98796.31;;;13.55;61.39
20394;BME280;10356;50.544;9.642;2023-02-20T12:49:37;98784.66;;;13.59;60.09
20394;BME280;10356;50.544;9.642;2023-02-20T12:52:22;98777.53;;;13.50;60.13
20394;BME280;10356;50.544;9.642;2023-02-20T12:54:59;98764.00;;;13.45;60.51
20394;BME280;10356;50.544;9.642;2023-02-20T12:57:41;98760.38;;;13.57;60.86
20394;BME280;10356;50.544;9.642;2023-02-20T13:00:22;98753.88;;;13.72;61.53
20394;BME280;10356;50.544;9.642;2023-02-20T13:02:58;98743.16;;;13.75;61.03
20394;BME280;10356;50.544;9.642;2023-02-20T13:05:27;98744.94;;;13.75;60.99
20394;BME280;10356;50.544;9.642;2023-02-20T13:07:57;98740.53;;;13.75;61.47
20394;BME280;10356;50.544;9.642;2023-02-20T13:10:32;98724.13;;;13.73;60.93
20394;BME280;10356;50.544;9.642;2023-02-20T13:13:00;98721.03;;;13.68;60.51
20394;BME280;10356;50.544;9.642;2023-02-20T13:15:34;98727.34;;;13.66;60.29
20394;BME280;10356;50.544;9.642;2023-02-20T13:18:07;98715.84;;;13.78;60.95
20394;BME280;10356;50.544;9.642;2023-02-20T13:20:44;98714.22;;;13.77;59.10
20394;BME280;10356;50.544;9.642;2023-02-20T13:23:27;98707.72;;;13.60;60.28
20394;BME280;10356;50.544;9.642;2023-02-20T13:25:56;98697.78;;;13.75;60.79
20394;BME280;10356;50.544;9.642;2023-02-20T13:28:32;98687.81;;;13.89;60.70
20394;BME280;10356;50.544;9.642;2023-02-20T13:31:18;98681.22;;;14.15;59.32